Time;durP1;ratioP1;P1;durP2;ratioP2;P2;SDS_P1;SDS_P2;PMS_P1;PMS_P2;Temp;Humidity;BMP_temperature;BMP_pressure;BME280_temperature;BME280_humidity;BME280_pressure;Samples;Min_cycle;Max_cycle;Signal;HPM_P1;HPM_P2
2022/08/31 00:04:18;;;;;;;7.30;3.75;;;;;;;15.31;100.00;100283.84;4849382;29;20077;-85
2022/08/31 00:06:43;;;;;;;7.13;3.90;;;;;;;15.19;100.00;100260.59;4844620;29;20038;-85
2022/08/31 00:09:09;;;;;;;5.18;4.13;;;;;;;15.17;100.00;100262.63;4854678;29;20048;-85
2022/08/31 00:11:34;;;;;;;6.63;4.40;;;;;;;15.22;100.00;100291.13;4862004;29;20037;-85
2022/08/31 00:14:08;;;;;;;6.43;4.03;;;;;;;15.09;100.00;100286.56;4850190;29;20157;-85
2022/08/31 00:16:39;;;;;;;6.25;4.00;;;;;;;15.13;100.00;100274.59;4848058;29;20026;-84
2022/08/31 00:19:05;;;;;;;8.98;4.70;;;;;;;15.07;100.00;100272.72;4849241;29;20126;-84
2022/08/31 00:21:32;;;;;;;7.47;4.75;;;;;;;15.01;100.00;100276.16;4864267;29;20596;-85
2022/08/31 00:23:58;;;;;;;8.02;4.25;;;;;;;14.98;100.00;100275.53;4851886;29;20030;-86
2022/08/31 00:26:24;;;;;;;6.82;4.38;;;;;;;14.85;100.00;100270.13;4852187;29;20033;-84
2022/08/31 00:28:50;;;;;;;6.35;4.22;;;;;;;14.98;100.00;100280.81;4867003;29;20564;-85
2022/08/31 00:31:18;;;;;;;6.47;4.65;;;;;;;14.76;100.00;100260.72;4865579;29;20029;-84
2022/08/31 00:33:45;;;;;;;10.40;4.88;;;;;;;14.80;100.00;100272.53;4864564;29;20045;-85
2022/08/31 00:36:13;;;;;;;15.88;4.65;;;;;;;14.93;100.00;100271.81;4854508;29;20037;-84
2022/08/31 00:38:41;;;;;;;9.80;4.80;;;;;;;14.98;100.00;100280.81;4866306;29;20117;-85
2022/08/31 00:41:09;;;;;;;6.13;4.03;;;;;;;15.10;100.00;100274.97;4847611;29;20501;-85
2022/08/31 00:43:40;;;;;;;6.15;4.35;;;;;;;15.16;100.00;100284.78;4847443;29;20037;-85
2022/08/31 00:46:08;;;;;;;9.57;4.28;;;;;;;15.16;100.00;100271.56;4848274;29;20042;-85
2022/08/31 00:48:40;;;;;;;4.88;4.00;;;;;;;15.11;100.00;100280.09;4832918;29;20413;-84
2022/08/31 00:51:05;;;;;;;9.57;4.07;;;;;;;15.13;100.00;100275.41;4848644;29;20033;-85
2022/08/31 00:53:31;;;;;;;9.38;4.57;;;;;;;15.13;100.00;100282.50;4851625;29;20029;-84
2022/08/31 00:56:00;;;;;;;8.07;4.70;;;;;;;15.13;100.00;100282.50;4846743;29;20124;-85
2022/08/31 00:58:47;;;;;;;8.95;5.03;;;;;;;14.97;100.00;100281.81;4843663;29;20447;-84
2022/08/31 01:01:13;;;;;;;9.05;4.90;;;;;;;14.97;100.00;100271.25;4848730;29;20397;-85
2022/08/31 01:03:40;;;;;;;10.95;5.32;;;;;;;15.04;100.00;100273.13;4848605;29;20033;-87
2022/08/31 01:06:09;;;;;;;8.95;5.15;;;;;;;14.83;100.00;100272.16;4863649;29;20484;-84
2022/08/31 01:08:35;;;;;;;11.15;5.63;;;;;;;14.76;100.00;100276.59;4848921;29;20030;-85
2022/08/31 01:11:01;;;;;;;6.95;5.38;;;;;;;14.82;100.00;100270.53;4850672;29;20033;-84
2022/08/31 01:13:29;;;;;;;7.82;5.47;;;;;;;14.85;100.00;100268.31;4852664;29;20044;-85
2022/08/31 01:16:04;;;;;;;9.13;5.32;;;;;;;14.78;100.00;100264.00;4850740;29;20071;-84
2022/08/31 01:18:33;;;;;;;9.40;5.40;;;;;;;14.80;100.00;100276.00;4842734;29;20038;-85
2022/08/31 01:21:01;;;;;;;11.45;5.72;;;;;;;14.89;100.00;100281.94;4844961;29;20094;-84
2022/08/31 01:23:32;;;;;;;8.98;6.13;;;;;;;14.93;100.00;100280.56;4835384;29;20070;-85
2022/08/31 01:25:58;;;;;;;9.52;5.75;;;;;;;14.90;100.00;100273.00;4851572;29;20430;-86
2022/08/31 01:28:24;;;;;;;11.85;5.85;;;;;;;14.88;100.00;100271.59;4847197;29;20054;-85
2022/08/31 01:31:00;;;;;;;8.77;5.72;;;;;;;15.04;100.00;100273.13;4849730;29;20474;-84
2022/08/31 01:33:27;;;;;;;7.60;5.63;;;;;;;14.97;100.00;100265.97;4850051;29;20034;-84
2022/08/31 01:35:54;;;;;;;8.98;5.45;;;;;;;14.95;100.00;100275.91;4847635;29;20038;-85
2022/08/31 01:38:20;;;;;;;8.90;5.65;;;;;;;14.80;100.00;100275.19;4846984;29;20109;-84
2022/08/31 01:40:52;;;;;;;9.63;5.60;;;;;;;14.72;100.00;100257.66;4849485;29;20034;-86
2022/08/31 01:43:18;;;;;;;11.40;5.50;;;;;;;14.86;100.00;100277.06;4850712;29;20038;-85
2022/08/31 01:45:44;;;;;;;10.43;5.97;;;;;;;14.76;100.00;100268.66;4851276;29;20038;-86
2022/08/31 01:48:10;;;;;;;9.20;5.85;;;;;;;14.78;100.00;100280.66;4848929;29;20053;-85
2022/08/31 01:50:35;;;;;;;12.15;6.32;;;;;;;14.65;100.00;100283.97;4848600;29;20061;-87
2022/08/31 01:53:01;;;;;;;9.13;6.05;;;;;;;14.83;100.00;100277.44;4852664;29;20059;-83
2022/08/31 01:55:26;;;;;;;8.52;5.93;;;;;;;14.84;100.00;100284.38;4853045;29;20040;-86
2022/08/31 01:57:52;;;;;;;7.95;5.72;;;;;;;14.75;100.00;100277.59;4847644;29;20063;-85
2022/08/31 02:00:18;;;;;;;9.05;5.88;;;;;;;14.79;100.00;100281.47;4851940;29;20025;-85
2022/08/31 02:02:44;;;;;;;10.75;5.90;;;;;;;14.88;100.00;100282.97;4852459;29;20045;-85
2022/08/31 02:05:10;;;;;;;10.05;5.40;;;;;;;14.92;100.00;100284.22;4863158;29;20034;-85
2022/08/31 02:07:36;;;;;;;13.50;6.40;;;;;;;14.85;100.00;100278.06;4855604;29;20029;-84
2022/08/31 02:10:03;;;;;;;10.32;5.72;;;;;;;14.80;100.00;100277.84;4853185;29;20044;-84
2022/08/31 02:12:28;;;;;;;9.07;5.90;;;;;;;14.75;100.00;100280.25;4865735;29;20105;-84
2022/08/31 02:14:53;;;;;;;11.63;6.05;;;;;;;14.68;100.00;100286.25;4857021;29;20034;-84
2022/08/31 02:17:19;;;;;;;12.77;6.63;;;;;;;14.83;100.00;100288.00;4854495;29;20041;-84
2022/08/31 02:19:45;;;;;;;10.52;6.28;;;;;;;14.84;100.00;100279.06;4867535;29;20042;-84
2022/08/31 02:22:10;;;;;;;12.95;5.75;;;;;;;14.76;100.00;100281.88;4850826;29;20155;-84
2022/08/31 02:24:36;;;;;;;8.80;5.75;;;;;;;14.89;100.00;100273.22;4858391;29;20070;-86
2022/08/31 02:27:02;;;;;;;8.38;6.18;;;;;;;14.84;100.00;100281.72;4847933;29;20041;-85
2022/08/31 02:29:27;;;;;;;8.73;6.00;;;;;;;14.62;100.00;100260.59;4853123;29;20041;-83
2022/08/31 02:31:53;;;;;;;8.38;6.15;;;;;;;14.78;100.00;100282.50;4851846;29;20568;-86
2022/08/31 02:34:19;;;;;;;11.25;6.18;;;;;;;14.79;100.00;100279.66;4851685;29;20030;-86
2022/08/31 02:36:45;;;;;;;11.50;5.93;;;;;;;14.88;100.00;100279.53;4852206;29;20057;-85
2022/08/31 02:39:12;;;;;;;9.18;6.20;;;;;;;14.65;100.00;100259.41;4847811;29;20049;-85
2022/08/31 02:41:38;;;;;;;8.35;5.82;;;;;;;14.85;100.00;100283.34;4853694;29;20030;-85
2022/08/31 02:44:04;;;;;;;9.88;5.65;;;;;;;14.88;100.00;100284.81;4851148;29;20090;-86
2022/08/31 02:46:29;;;;;;;8.18;5.43;;;;;;;14.80;100.00;100267.25;4852034;29;20054;-85
2022/08/31 02:48:55;;;;;;;8.30;5.70;;;;;;;14.93;100.00;100277.91;4851756;29;20037;-85
2022/08/31 02:51:21;;;;;;;14.38;6.15;;;;;;;14.89;100.00;100267.94;4854955;29;20029;-85
2022/08/31 02:53:49;;;;;;;11.20;6.40;;;;;;;14.88;100.00;100272.38;4852058;29;20045;-85
2022/08/31 02:56:15;;;;;;;10.32;5.88;;;;;;;14.84;100.00;100276.44;4851763;29;20042;-85
2022/08/31 02:58:41;;;;;;;7.28;5.43;;;;;;;14.67;100.00;100266.09;4848099;29;20090;-85
2022/08/31 03:01:07;;;;;;;9.18;5.47;;;;;;;14.78;100.00;100279.84;4851108;29;20029;-85
2022/08/31 03:03:33;;;;;;;9.05;5.07;;;;;;;14.88;100.00;100280.31;4853487;29;20034;-84
2022/08/31 03:06:00;;;;;;;10.48;5.35;;;;;;;14.85;100.00;100270.13;4863562;29;20045;-86
2022/08/31 03:08:26;;;;;;;11.95;5.82;;;;;;;14.85;100.00;100270.13;4852418;29;20032;-85
2022/08/31 03:10:52;;;;;;;9.02;5.45;;;;;;;14.88;100.00;100274.22;4862258;29;20112;-86
2022/08/31 03:13:18;;;;;;;9.98;5.10;;;;;;;14.86;100.00;100269.13;4850173;29;20045;-85
2022/08/31 03:15:44;;;;;;;10.77;4.82;;;;;;;14.63;100.00;100256.94;4850642;29;20030;-84
2022/08/31 03:18:09;;;;;;;10.13;4.75;;;;;;;14.70;100.00;100257.78;4849192;29;20042;-84
2022/08/31 03:20:36;;;;;;;7.88;5.43;;;;;;;14.77;100.00;100278.22;4848820;29;20093;-84
2022/08/31 03:23:03;;;;;;;7.30;4.70;;;;;;;14.63;100.00;100249.00;4854039;29;20484;-84
2022/08/31 03:25:29;;;;;;;9.80;5.45;;;;;;;14.80;100.00;100272.53;4850393;29;20041;-85
2022/08/31 03:27:55;;;;;;;10.02;5.88;;;;;;;14.83;100.00;100274.81;4852129;29;20396;-85
2022/08/31 03:30:21;;;;;;;7.72;5.57;;;;;;;14.88;100.00;100266.31;4850048;29;20436;-84
2022/08/31 03:32:49;;;;;;;10.02;4.38;;;;;;;14.88;100.00;100269.75;4851274;29;20854;-85
2022/08/31 03:35:16;;;;;;;7.53;5.20;;;;;;;14.77;100.00;100257.06;4833564;29;20034;-85
2022/08/31 03:37:43;;;;;;;9.48;5.03;;;;;;;14.81;100.00;100269.69;4852618;29;20052;-85
2022/08/31 03:40:09;;;;;;;9.07;5.22;;;;;;;14.75;100.00;100269.66;4849357;29;20033;-84
2022/08/31 03:42:34;;;;;;;7.85;4.78;;;;;;;14.74;100.00;100252.16;4850105;29;20050;-83
2022/08/31 03:45:00;;;;;;;8.55;4.32;;;;;;;14.78;100.00;100264.78;4865643;29;20400;-84
2022/08/31 03:47:27;;;;;;;12.50;5.03;;;;;;;14.85;100.00;100264.84;4855129;29;20040;-84
2022/08/31 03:49:52;;;;;;;11.25;4.95;;;;;;;14.78;100.00;100259.50;4851007;29;20059;-84
2022/08/31 03:52:20;;;;;;;8.13;4.60;;;;;;;14.84;100.00;100257.94;4865467;29;20040;-84
2022/08/31 03:54:46;;;;;;;8.88;5.00;;;;;;;14.83;100.00;100256.28;4851928;29;20045;-85
2022/08/31 03:57:12;;;;;;;7.60;4.70;;;;;;;14.88;100.00;100269.75;4846324;29;20101;-85
2022/08/31 03:59:38;;;;;;;9.63;5.05;;;;;;;14.84;100.00;100261.41;4848379;29;20049;-84
2022/08/31 04:02:04;;;;;;;9.60;4.50;;;;;;;14.75;100.00;100265.19;4833091;29;20137;-84
2022/08/31 04:04:30;;;;;;;8.90;4.57;;;;;;;14.79;100.00;100255.06;4851136;29;20040;-84
2022/08/31 04:06:55;;;;;;;7.55;4.32;;;;;;;14.83;100.00;100253.66;4844740;29;20061;-84
2022/08/31 04:09:21;;;;;;;8.68;4.40;;;;;;;14.75;100.00;100265.19;4852226;29;20124;-84
2022/08/31 04:11:47;;;;;;;6.35;4.28;;;;;;;14.69;100.00;100245.59;4862748;29;20037;-84
2022/08/31 04:14:12;;;;;;;7.35;4.50;;;;;;;14.69;100.00;100255.34;4845148;29;20537;-85
2022/08/31 04:16:40;;;;;;;6.93;4.50;;;;;;;14.66;100.00;100251.25;4866950;29;20029;-84
2022/08/31 04:19:07;;;;;;;5.68;4.20;;;;;;;14.66;100.00;100261.84;4847195;29;20049;-84
2022/08/31 04:21:33;;;;;;;7.40;4.50;;;;;;;14.64;100.00;100255.91;4850751;29;20522;-85
2022/08/31 04:24:00;;;;;;;7.45;4.40;;;;;;;14.75;100.00;100265.19;4851891;29;20061;-85
2022/08/31 04:26:32;;;;;;;9.13;5.03;;;;;;;14.76;100.00;100260.72;4848509;29;20049;-84
2022/08/31 04:28:58;;;;;;;8.82;4.70;;;;;;;14.59;100.00;100247.75;4847814;29;20037;-84
2022/08/31 04:31:25;;;;;;;8.27;4.60;;;;;;;14.68;100.00;100246.59;4867647;29;20089;-86
2022/08/31 04:33:51;;;;;;;7.82;4.50;;;;;;;14.63;100.00;100256.09;4863486;29;20061;-84
2022/08/31 04:36:19;;;;;;;10.75;5.13;;;;;;;14.64;100.00;100245.34;4851045;29;20391;-85
2022/08/31 04:38:50;;;;;;;8.05;4.93;;;;;;;14.58;100.00;100248.78;4854759;29;20081;-86
2022/08/31 04:41:18;;;;;;;8.88;5.43;;;;;;;14.69;100.00;100256.16;4847766;29;20034;-84
2022/08/31 04:43:46;;;;;;;8.35;4.70;;;;;;;14.69;100.00;100250.88;4847911;29;20066;-85
2022/08/31 04:46:12;;;;;;;8.13;5.20;;;;;;;14.63;100.00;100267.50;4850122;29;20026;-85
2022/08/31 04:48:39;;;;;;;7.20;4.18;;;;;;;14.74;100.00;100268.00;4851652;29;20026;-85
2022/08/31 04:51:08;;;;;;;7.68;4.70;;;;;;;14.72;100.00;100255.00;4845373;29;20037;-84
2022/08/31 04:53:35;;;;;;;9.93;4.80;;;;;;;14.79;100.00;100268.28;4848994;29;20101;-85
2022/08/31 04:56:13;;;;;;;10.02;5.53;;;;;;;14.78;100.00;100269.28;4852309;29;20063;-84
2022/08/31 04:58:45;;;;;;;6.55;4.57;;;;;;;14.79;100.00;100262.97;4847003;29;20075;-85
2022/08/31 05:01:12;;;;;;;9.30;4.60;;;;;;;14.63;100.00;100272.78;4866229;29;20396;-86
2022/08/31 05:03:39;;;;;;;7.05;4.88;;;;;;;14.49;100.00;100260.47;4848376;29;20382;-83
2022/08/31 05:06:05;;;;;;;10.38;5.63;;;;;;;14.37;100.00;100258.34;4851642;29;20058;-86
2022/08/31 05:08:31;;;;;;;9.57;5.90;;;;;;;14.43;100.00;100268.16;4848316;29;20034;-85
2022/08/31 05:10:57;;;;;;;12.02;6.18;;;;;;;14.38;100.00;100265.25;4847268;29;20045;-84
2022/08/31 05:13:23;;;;;;;10.32;5.88;;;;;;;14.33;100.00;100266.84;4849008;29;20034;-85
2022/08/31 05:15:49;;;;;;;5.78;4.85;;;;;;;14.47;100.00;100275.69;4847382;29;20034;-84
2022/08/31 05:18:14;;;;;;;9.48;5.63;;;;;;;14.47;100.00;100281.81;4850925;29;20404;-85
2022/08/31 05:20:40;;;;;;;17.20;5.80;;;;;;;14.52;100.00;100275.94;4849844;29;20583;-84
2022/08/31 05:23:06;;;;;;;9.23;5.78;;;;;;;14.36;100.00;100271.72;4852386;29;20045;-83
2022/08/31 05:25:32;;;;;;;7.97;5.40;;;;;;;14.45;100.00;100283.81;4845779;29;20040;-84
2022/08/31 05:27:58;;;;;;;9.85;5.30;;;;;;;14.50;100.00;100273.50;4850130;29;20065;-83
2022/08/31 05:30:24;;;;;;;10.48;5.45;;;;;;;14.46;100.00;100272.25;4849585;29;20486;-84
2022/08/31 05:32:49;;;;;;;9.20;5.25;;;;;;;14.55;100.00;100281.66;4851352;29;20125;-83
2022/08/31 05:35:15;;;;;;;8.77;6.05;;;;;;;14.56;100.00;100269.28;4832439;29;20074;-84
2022/08/31 05:37:41;;;;;;;10.75;5.38;;;;;;;14.56;100.00;100287.78;4833186;29;20025;-84
2022/08/31 05:40:08;;;;;;;11.38;5.95;;;;;;;14.64;100.00;100279.69;4851249;29;20041;-84
2022/08/31 05:42:34;;;;;;;7.30;5.60;;;;;;;14.63;100.00;100288.63;4845681;29;20037;-84
2022/08/31 05:45:00;;;;;;;8.93;5.32;;;;;;;14.66;100.00;100288.25;4852634;29;20073;-85
2022/08/31 05:47:27;;;;;;;10.50;5.65;;;;;;;14.67;100.00;100283.81;4850768;29;20113;-84
2022/08/31 05:49:53;;;;;;;11.25;6.05;;;;;;;14.64;100.00;100274.41;4847289;29;20429;-85
2022/08/31 05:52:18;;;;;;;10.75;5.68;;;;;;;14.81;100.00;100290.03;4852291;29;20078;-85
2022/08/31 05:54:44;;;;;;;9.65;5.68;;;;;;;14.78;100.00;100274.56;4847679;29;20042;-84
2022/08/31 05:57:13;;;;;;;12.98;7.30;;;;;;;14.74;100.00;100295.25;4849188;29;20038;-84
2022/08/31 05:59:39;;;;;;;12.15;7.38;;;;;;;14.90;100.00;100290.72;4845761;29;20433;-85
2022/08/31 06:02:09;;;;;;;14.05;6.38;;;;;;;14.94;100.00;100294.59;4846140;29;20042;-83
2022/08/31 06:04:35;;;;;;;11.10;6.20;;;;;;;14.94;100.00;100292.78;4849993;29;20037;-86
2022/08/31 06:07:01;;;;;;;12.52;7.15;;;;;;;14.92;100.00;100305.34;4847647;29;20045;-84
2022/08/31 06:09:27;;;;;;;13.15;7.25;;;;;;;14.95;100.00;100291.78;4846437;29;20065;-85
2022/08/31 06:11:52;;;;;;;14.63;8.05;;;;;;;14.90;100.00;100288.88;4848271;29;20037;-84
2022/08/31 06:14:20;;;;;;;11.20;7.30;;;;;;;14.83;100.00;100277.44;4848285;29;20065;-84
2022/08/31 06:16:46;;;;;;;12.77;6.93;;;;;;;14.95;100.00;100297.06;4849463;29;20503;-84
2022/08/31 06:19:12;;;;;;;13.60;7.25;;;;;;;14.98;100.00;100296.69;4852150;29;20057;-84
2022/08/31 06:21:41;;;;;;;11.55;7.28;;;;;;;15.07;100.00;100299.16;4845729;29;20030;-84
2022/08/31 06:24:08;;;;;;;10.45;7.13;;;;;;;15.22;100.00;100293.75;4847086;29;20138;-85
2022/08/31 06:26:35;;;;;;;10.40;6.88;;;;;;;15.27;100.00;100297.47;4847597;29;20052;-84
2022/08/31 06:29:04;;;;;;;13.40;7.75;;;;;;;15.27;100.00;100286.88;4847091;29;20026;-84
2022/08/31 06:31:37;;;;;;;7.63;6.40;;;;;;;15.28;100.00;100293.81;4849450;29;20041;-85
2022/08/31 06:34:05;;;;;;;12.52;6.90;;;;;;;15.31;100.00;100297.06;4850012;29;20082;-83
2022/08/31 06:36:31;;;;;;;13.05;7.45;;;;;;;15.17;100.00;100286.44;4845879;29;20082;-84
2022/08/31 06:38:59;;;;;;;12.10;7.85;;;;;;;15.34;100.00;100296.72;4861302;29;20034;-85
2022/08/31 06:41:34;;;;;;;18.10;8.40;;;;;;;15.25;100.00;100288.91;4850474;29;20299;-86
2022/08/31 06:44:03;;;;;;;11.15;7.65;;;;;;;15.37;100.00;100301.59;4847022;29;20040;-85
2022/08/31 06:46:31;;;;;;;19.55;7.07;;;;;;;15.48;100.00;100300.22;4850357;29;20034;-85
2022/08/31 06:48:56;;;;;;;13.63;8.02;;;;;;;15.53;100.00;100309.22;4851678;29;20494;-85
2022/08/31 06:51:23;;;;;;;12.13;7.93;;;;;;;15.70;100.00;100308.88;4850361;29;20030;-86
2022/08/31 06:53:50;;;;;;;13.48;8.50;;;;;;;15.65;100.00;100296.25;4850702;29;20026;-86
2022/08/31 06:56:21;;;;;;;16.75;8.00;;;;;;;15.73;100.00;100313.78;4849891;29;20504;-86
2022/08/31 06:58:49;;;;;;;11.57;8.00;;;;;;;15.67;100.00;100303.97;4847014;29;20042;-85
2022/08/31 07:01:18;;;;;;;13.43;8.43;;;;;;;15.68;100.00;100310.91;4849311;29;20429;-84
2022/08/31 07:03:47;;;;;;;14.65;8.73;;;;;;;15.51;100.00;100305.13;4849473;29;20038;-84
2022/08/31 07:06:28;;;;;;;15.15;8.57;;;;;;;15.72;100.00;100322.72;4849064;29;20041;-84
2022/08/31 07:08:57;;;;;;;12.77;8.38;;;;;;;15.90;100.00;100321.41;4852934;29;20033;-89
2022/08/31 07:11:26;;;;;;;16.33;9.40;;;;;;;16.06;100.00;100317.59;4848266;29;20106;-88
2022/08/31 07:13:54;;;;;;;17.13;8.93;;;;;;;15.98;100.00;100316.75;4854361;29;20033;-89
2022/08/31 07:16:22;;;;;;;17.75;9.07;;;;;;;16.10;100.00;100314.34;4854070;29;20085;-88
2022/08/31 07:18:49;;;;;;;16.17;8.80;;;;;;;16.25;100.00;100316.00;4848305;29;20056;-89
2022/08/31 07:21:24;;;;;;;15.50;9.75;;;;;;;16.27;100.00;100322.75;4852940;29;20033;-87
2022/08/31 07:23:51;;;;;;;15.18;9.05;;;;;;;16.19;100.00;100312.31;4853947;29;20036;-86
2022/08/31 07:26:24;;;;;;;13.13;9.00;;;;;;;16.23;100.00;100320.69;4849720;29;20110;-86
2022/08/31 07:28:52;;;;;;;19.65;10.32;;;;;;;16.25;100.00;100326.59;4852765;29;20113;-87
2022/08/31 07:31:25;;;;;;;13.10;9.00;;;;;;;16.31;100.00;100323.19;4848996;29;20048;-87
2022/08/31 07:33:54;;;;;;;15.13;9.90;;;;;;;16.46;100.00;100330.13;4851870;29;20056;-88
2022/08/31 07:36:22;;;;;;;15.10;9.63;;;;;;;16.48;100.00;100314.81;4850816;29;20656;-88
2022/08/31 07:44:27;;;;;;;19.65;10.60;;;;;;;16.66;100.00;100317.69;4846699;29;20144;-87
2022/08/31 07:46:54;;;;;;;16.65;9.82;;;;;;;16.51;100.00;100319.75;4850244;29;20045;-86
2022/08/31 07:49:20;;;;;;;17.00;9.10;;;;;;;16.48;100.00;100320.97;4849111;29;20433;-86
2022/08/31 07:51:51;;;;;;;24.60;10.25;;;;;;;16.53;100.00;100317.72;4853073;29;20057;-90
2022/08/31 07:54:20;;;;;;;18.38;9.90;;;;;;;16.45;100.00;100316.06;4831495;29;20034;-86
2022/08/31 07:56:48;;;;;;;13.50;10.32;;;;;;;16.51;100.00;100301.19;4848008;29;20132;-87
2022/08/31 07:59:15;;;;;;;19.65;9.82;;;;;;;16.53;100.00;100317.72;4847080;29;20025;-86
2022/08/31 08:01:41;;;;;;;15.38;9.85;;;;;;;16.43;100.00;100315.44;4848938;29;20053;-86
2022/08/31 08:04:11;;;;;;;17.15;9.25;;;;;;;16.60;100.00;100317.69;4844295;29;20116;-87
2022/08/31 08:06:37;;;;;;;13.60;9.35;;;;;;;16.65;100.00;100320.56;4848426;29;20128;-86
2022/08/31 08:09:06;;;;;;;17.02;9.32;;;;;;;16.93;100.00;100312.41;4849605;29;20174;-87
2022/08/31 08:11:35;;;;;;;20.50;8.32;;;;;;;17.19;100.00;100316.06;4864439;29;20133;-85
2022/08/31 08:14:03;;;;;;;13.25;8.88;;;;;;;17.26;100.00;100308.91;4846657;29;20040;-86
2022/08/31 08:16:29;;;;;;;16.85;9.27;;;;;;;17.27;100.00;100323.81;4863554;29;20034;-85
2022/08/31 08:18:56;;;;;;;15.57;8.43;;;;;;;17.37;100.00;100318.06;4851747;29;20117;-85
2022/08/31 08:21:22;;;;;;;11.77;7.90;;;;;;;17.34;100.00;100307.06;4867813;29;20033;-85
2022/08/31 08:23:47;;;;;;;14.40;8.35;;;;;;;17.28;100.00;100312.16;4849955;29;20041;-85
2022/08/31 08:26:13;;;;;;;14.93;8.10;;;;;;;17.58;100.00;100323.34;4852920;29;20091;-86
2022/08/31 08:28:39;;;;;;;17.92;8.02;;;;;;;17.70;100.00;100322.47;4852025;29;20049;-86
2022/08/31 08:31:06;;;;;;;17.15;8.65;;;;;;;17.86;100.00;100325.69;4865362;29;20432;-86
2022/08/31 08:33:34;;;;;;;10.88;7.78;;;;;;;17.85;100.00;100314.22;4849692;29;20033;-85
2022/08/31 08:36:06;;;;;;;15.07;8.07;;;;;;;18.16;100.00;100319.84;4851531;29;20037;-87
2022/08/31 08:38:32;;;;;;;14.00;8.07;;;;;;;18.39;100.00;100327.25;4848352;29;20041;-86
2022/08/31 08:41:00;;;;;;;12.60;7.88;;;;;;;18.53;100.00;100319.22;4851717;29;20037;-86
2022/08/31 08:43:32;;;;;;;13.45;7.35;;;;;;;18.58;100.00;100314.06;4865381;29;20057;-85
2022/08/31 08:46:01;;;;;;;10.63;6.93;;;;;;;18.64;100.00;100315.84;4850470;29;20041;-86
2022/08/31 08:48:31;;;;;;;10.98;7.03;;;;;;;18.42;100.00;100302.91;4850546;29;20491;-86
2022/08/31 08:51:03;;;;;;;9.15;7.18;;;;;;;18.32;100.00;100323.84;4846017;29;20029;-86
2022/08/31 08:53:31;;;;;;;11.35;7.20;;;;;;;18.24;100.00;100311.63;4849853;29;20034;-86
2022/08/31 08:55:57;;;;;;;14.13;7.38;;;;;;;18.21;100.00;100316.53;4854572;29;20491;-84
2022/08/31 08:58:23;;;;;;;13.50;6.60;;;;;;;18.49;100.00;100302.06;4866099;29;20026;-86
2022/08/31 09:00:53;;;;;;;14.20;6.72;;;;;;;18.83;100.00;100313.22;4846446;29;20438;-85
2022/08/31 09:03:29;;;;;;;12.75;6.43;;;;;;;19.21;100.00;100312.28;4829318;29;20047;-87
2022/08/31 09:06:01;;;;;;;9.80;5.53;;;;;;;19.20;100.00;100318.66;4852078;29;20076;-86
2022/08/31 09:08:36;;;;;;;10.20;6.05;;;;;;;19.12;100.00;100316.28;4861802;29;20022;-86
2022/08/31 09:11:18;;;;;;;9.48;4.90;;;;;;;18.98;100.00;100311.09;4833917;29;20122;-86
2022/08/31 09:13:47;;;;;;;11.23;5.30;;;;;;;18.91;100.00;100310.31;4845369;29;20089;-86
2022/08/31 09:16:37;;;;;;;11.45;5.50;;;;;;;19.09;100.00;100311.41;4848866;29;20045;-86
2022/08/31 09:19:11;;;;;;;10.48;4.80;;;;;;;19.17;100.00;100303.13;4845197;29;20092;-86
2022/08/31 09:21:46;;;;;;;15.10;5.45;;;;;;;19.07;100.00;100305.50;4846590;29;20045;-86
2022/08/31 09:24:19;;;;;;;10.05;4.85;;;;;;;19.17;100.00;100305.78;4848648;29;20480;-87
2022/08/31 09:26:53;;;;;;;11.93;4.93;;;;;;;19.32;100.00;100304.63;4846678;29;20038;-87
2022/08/31 09:29:26;;;;;;;;;;;;;;;19.40;100.00;100310.47;4853824;29;20504;-87
2022/08/31 09:32:08;;;;;;;7.10;4.40;;;;;;;19.25;100.00;100310.81;4865439;29;19955;-85
2022/08/31 09:34:39;;;;;;;8.95;4.30;;;;;;;19.73;100.00;100299.63;4847448;29;20029;-86
2022/08/31 09:37:19;;;;;;;8.60;4.18;;;;;;;19.84;100.00;100297.03;4845047;29;20065;-85
2022/08/31 09:39:48;;;;;;;14.00;4.10;;;;;;;19.90;100.00;100305.19;4846643;29;20488;-86
2022/08/31 09:42:31;;;;;;;11.65;4.60;;;;;;;19.95;100.00;100303.50;4843769;29;20051;-85
2022/08/31 09:45:01;;;;;;;12.90;4.90;;;;;;;20.08;100.00;100299.00;4850398;29;20037;-85
2022/08/31 09:47:32;;;;;;;7.03;4.38;;;;;;;20.16;100.00;100300.53;4850503;29;20044;-85
2022/08/31 09:49:58;;;;;;;8.13;4.00;;;;;;;20.23;100.00;100293.25;4845894;29;20040;-85
2022/08/31 09:55:23;;;;;;;9.55;4.68;;;;;;;19.93;100.00;100294.88;4848864;29;20038;-85
2022/08/31 09:57:53;;;;;;;8.73;4.18;;;;;;;19.75;100.00;100271.75;4848168;29;20041;-86
2022/08/31 10:00:33;;;;;;;7.38;4.10;;;;;;;19.78;100.00;100283.81;4842757;29;20444;-86
2022/08/31 10:03:23;;;;;;;15.82;4.35;;;;;;;19.94;100.00;100287.72;4847908;29;20382;-85
2022/08/31 10:05:50;;;;;;;10.85;5.07;;;;;;;19.48;100.00;100287.22;4865721;29;20033;-86
2022/08/31 10:08:56;;;;;;;10.65;4.40;;;;;;;19.48;100.00;100288.06;4848373;29;20480;-86
2022/08/31 10:11:27;;;;;;;8.90;4.40;;;;;;;19.14;100.00;100271.63;4845287;29;20037;-87
2022/08/31 10:14:02;;;;;;;8.25;4.38;;;;;;;19.26;100.00;100280.53;4846590;29;20040;-87
2022/08/31 10:16:34;;;;;;;7.07;4.25;;;;;;;19.35;100.00;100277.56;4849309;29;20061;-87
2022/08/31 10:19:05;;;;;;;11.60;4.60;;;;;;;19.44;100.00;100267.44;4859782;29;20049;-86
2022/08/31 10:21:50;;;;;;;10.98;5.32;;;;;;;19.48;100.00;100274.75;4866654;29;20044;-86
2022/08/31 10:24:43;;;;;;;9.02;4.18;;;;;;;19.58;100.00;100278.72;4851285;29;20514;-86
2022/08/31 10:27:22;;;;;;;8.98;3.90;;;;;;;19.46;100.00;100271.50;4853564;29;20124;-86
2022/08/31 10:29:59;;;;;;;5.55;4.35;;;;;;;19.54;100.00;100284.50;4851783;29;20084;-87
2022/08/31 10:32:45;;;;;;;8.43;3.90;;;;;;;19.25;100.00;100281.53;4862973;29;20045;-86
2022/08/31 10:35:23;;;;;;;9.52;3.95;;;;;;;19.54;100.00;100270.34;4844014;29;20041;-85
2022/08/31 10:38:31;;;;;;;7.30;3.60;;;;;;;19.93;100.00;100278.09;4851301;29;20030;-86
2022/08/31 10:41:08;;;;;;;4.97;3.55;;;;;;;19.93;100.00;100252.25;4854028;29;20381;-85
2022/08/31 10:43:44;;;;;;;7.63;3.75;;;;;;;19.80;100.00;100253.22;4850120;29;20063;-85
2022/08/31 10:46:13;;;;;;;5.57;3.53;;;;;;;20.07;100.00;100260.91;4850332;29;20102;-86
2022/08/31 10:48:53;;;;;;;13.38;4.05;;;;;;;19.81;100.00;100251.38;4850889;29;20425;-86
2022/08/31 10:51:26;;;;;;;6.68;3.78;;;;;;;20.05;100.00;100260.31;4850890;29;20369;-86
2022/08/31 10:53:58;;;;;;;7.93;3.42;;;;;;;20.55;100.00;100252.97;4847772;29;20041;-85
2022/08/31 10:56:40;;;;;;;8.93;3.55;;;;;;;20.12;100.00;100247.69;4848378;29;20453;-84
2022/08/31 10:59:42;;;;;;;9.18;3.65;;;;;;;20.14;100.00;100243.97;4852705;29;20067;-86
2022/08/31 11:02:47;;;;;;;9.05;4.13;;;;;;;20.18;100.00;100255.81;4851266;29;20089;-86
2022/08/31 11:05:32;;;;;;;;;;;;;;;20.27;100.00;100257.13;4851394;29;20453;-85
2022/08/31 11:08:47;;;;;;;6.88;3.85;;;;;;;20.31;100.00;100236.94;4837567;29;19916;-86
2022/08/31 11:11:38;;;;;;;7.95;3.67;;;;;;;20.39;100.00;100244.59;4843225;29;20448;-85
2022/08/31 11:14:18;;;;;;;6.97;3.60;;;;;;;20.35;100.00;100242.63;4847920;29;20551;-86
2022/08/31 11:16:59;;;;;;;5.60;3.25;;;;;;;20.56;100.00;100243.91;4854365;29;20125;-86
2022/08/31 11:19:25;;;;;;;8.45;3.90;;;;;;;20.87;100.00;100239.31;4849720;29;20037;-86
2022/08/31 11:22:11;;;;;;;6.10;3.58;;;;;;;21.00;100.00;100221.41;4850756;29;20086;-86
2022/08/31 11:25:02;;;;;;;8.93;3.55;;;;;;;21.16;100.00;100242.06;4849199;29;20037;-86
2022/08/31 11:27:51;;;;;;;5.10;3.75;;;;;;;20.65;100.00;100237.22;4850650;29;20109;-87
2022/08/31 11:30:26;;;;;;;5.18;3.50;;;;;;;20.58;100.00;100230.38;4849389;29;20125;-86
2022/08/31 11:32:59;;;;;;;7.32;4.20;;;;;;;20.96;100.00;100227.22;4861673;29;20384;-85
2022/08/31 11:35:46;;;;;;;6.82;3.60;;;;;;;21.12;100.00;100231.03;4849272;29;20454;-86
2022/08/31 11:38:53;;;;;;;6.00;3.60;;;;;;;20.81;100.00;100232.22;4850372;29;20036;-87